createdAt,value
2018-11-29T00:00:50.496Z,14.70
2018-11-29T00:03:18.789Z,14.10
2018-11-29T00:05:46.992Z,14.70
2018-11-29T00:08:15.235Z,14.57
2018-11-29T00:10:43.383Z,13.80
2018-11-29T00:13:11.565Z,14.00
2018-11-29T00:15:39.751Z,13.97
2018-11-29T00:18:07.957Z,15.77
2018-11-29T00:20:36.142Z,13.47
2018-11-29T00:23:04.325Z,14.47
2018-11-29T00:25:32.530Z,15.07
2018-11-29T00:28:00.734Z,14.00
2018-11-29T00:30:28.905Z,14.17
2018-11-29T00:32:57.131Z,15.37
2018-11-29T00:35:25.310Z,15.03
2018-11-29T00:37:53.522Z,14.47
2018-11-29T00:40:22.384Z,14.37
2018-11-29T00:42:50.634Z,14.37
2018-11-29T00:45:20.685Z,13.50
2018-11-29T00:47:49.118Z,14.33
2018-11-29T00:50:17.949Z,14.30
2018-11-29T00:52:46.916Z,16.23
2018-11-29T00:55:20.042Z,14.33
2018-11-29T00:57:48.254Z,16.40
2018-11-29T01:00:18.362Z,15.83
2018-11-29T01:02:46.643Z,16.50
2018-11-29T01:05:14.839Z,15.77
2018-11-29T01:07:43.063Z,15.97
2018-11-29T01:10:12.310Z,15.77
2018-11-29T01:12:40.604Z,16.90
2018-11-29T01:15:12.783Z,16.53
2018-11-29T01:17:41.118Z,15.73
2018-11-29T01:20:11.171Z,16.23
2018-11-29T01:22:39.507Z,15.80
2018-11-29T01:25:09.882Z,15.73
2018-11-29T01:27:38.138Z,15.80
2018-11-29T01:30:09.125Z,16.17
2018-11-29T01:32:37.446Z,15.87
2018-11-29T01:35:06.441Z,16.57
2018-11-29T01:37:34.693Z,16.90
2018-11-29T01:40:02.907Z,16.73
2018-11-29T01:42:31.174Z,16.27
2018-11-29T01:44:59.418Z,16.23
2018-11-29T01:47:27.669Z,16.33
2018-11-29T01:49:55.858Z,17.63
2018-11-29T01:52:24.084Z,16.33
2018-11-29T01:54:52.302Z,16.77
2018-11-29T01:57:20.530Z,16.57
2018-11-29T01:59:48.734Z,16.93
2018-11-29T02:02:16.950Z,17.10
2018-11-29T02:04:45.137Z,16.43
2018-11-29T02:07:13.359Z,16.17
2018-11-29T02:09:41.540Z,16.53
2018-11-29T02:12:09.767Z,17.90
2018-11-29T02:14:37.963Z,17.60
2018-11-29T02:17:06.680Z,17.20
2018-11-29T02:19:34.886Z,17.93
2018-11-29T02:22:03.121Z,16.87
2018-11-29T02:24:31.329Z,18.90
2018-11-29T02:26:59.551Z,17.13
2018-11-29T02:29:27.766Z,17.03
2018-11-29T02:31:56.003Z,17.40
2018-11-29T02:34:24.182Z,18.00
2018-11-29T02:36:52.479Z,16.27
2018-11-29T02:39:20.665Z,18.83
2018-11-29T02:41:48.865Z,17.57
2018-11-29T02:44:17.110Z,18.70
2018-11-29T02:46:45.439Z,17.40
2018-11-29T02:49:13.632Z,17.10
2018-11-29T02:51:41.805Z,19.00
2018-11-29T02:54:10.018Z,18.27
2018-11-29T02:56:38.233Z,17.50
2018-11-29T02:59:06.490Z,18.83
2018-11-29T03:01:34.674Z,17.07
2018-11-29T03:04:02.930Z,17.43
2018-11-29T03:06:31.147Z,17.93
2018-11-29T03:08:59.440Z,16.73
2018-11-29T03:11:27.655Z,18.77
2018-11-29T03:13:55.851Z,18.17
2018-11-29T03:16:24.041Z,19.60
2018-11-29T03:18:52.247Z,17.97
2018-11-29T03:21:20.440Z,17.60
2018-11-29T03:23:48.669Z,18.47
2018-11-29T03:26:16.885Z,17.30
2018-11-29T03:28:45.136Z,17.63
2018-11-29T03:31:13.347Z,19.03
2018-11-29T03:33:41.587Z,17.70
2018-11-29T03:36:09.778Z,17.87
2018-11-29T03:38:38.033Z,16.97
2018-11-29T03:41:06.243Z,16.93
2018-11-29T03:43:34.451Z,16.70
2018-11-29T03:46:02.656Z,16.80
2018-11-29T03:48:30.908Z,17.77
2018-11-29T03:50:59.177Z,15.50
2018-11-29T03:53:27.384Z,16.23
2018-11-29T03:55:55.569Z,16.70
2018-11-29T03:58:23.774Z,16.90
2018-11-29T04:00:51.974Z,16.97
2018-11-29T04:03:20.183Z,16.83
2018-11-29T04:05:48.461Z,17.53
2018-11-29T04:08:16.726Z,16.13
2018-11-29T04:10:44.953Z,16.20
2018-11-29T04:13:13.237Z,17.10
2018-11-29T04:15:41.450Z,16.13
2018-11-29T04:18:09.669Z,16.33
2018-11-29T04:20:37.918Z,17.80
2018-11-29T04:23:06.431Z,16.27
2018-11-29T04:25:34.646Z,15.77
2018-11-29T04:28:02.870Z,15.97
2018-11-29T04:30:31.073Z,15.87
2018-11-29T04:32:59.282Z,15.63
2018-11-29T04:35:27.471Z,16.37
2018-11-29T04:37:55.683Z,14.93
2018-11-29T04:40:23.882Z,15.13
2018-11-29T04:42:53.101Z,14.30
2018-11-29T04:45:21.318Z,14.33
2018-11-29T04:47:49.513Z,15.27
2018-11-29T04:50:17.820Z,14.67
2018-11-29T04:52:46.173Z,14.37
2018-11-29T04:55:14.411Z,13.57
2018-11-29T04:57:42.632Z,14.07
2018-11-29T05:00:14.155Z,14.07
2018-11-29T05:02:42.353Z,14.73
2018-11-29T05:05:11.386Z,13.43
2018-11-29T05:07:39.593Z,14.00
2018-11-29T05:10:09.370Z,13.40
2018-11-29T05:12:37.576Z,14.00
2018-11-29T05:15:07.773Z,13.40
2018-11-29T05:17:35.994Z,13.43
2018-11-29T05:20:04.630Z,15.43
2018-11-29T05:22:32.809Z,12.83
2018-11-29T05:25:01.022Z,12.67
2018-11-29T05:27:29.214Z,12.07
2018-11-29T05:29:57.430Z,12.87
2018-11-29T05:32:25.638Z,13.17
2018-11-29T05:34:53.850Z,12.93
2018-11-29T05:37:22.074Z,14.03
2018-11-29T05:39:50.277Z,12.40
2018-11-29T05:42:18.474Z,13.73
2018-11-29T05:44:47.250Z,12.87
2018-11-29T05:47:15.490Z,12.20
2018-11-29T05:49:43.678Z,13.60
2018-11-29T05:52:11.889Z,14.53
2018-11-29T05:54:40.072Z,13.40
2018-11-29T05:57:08.306Z,14.00
2018-11-29T05:59:36.499Z,12.37
2018-11-29T06:02:04.805Z,13.57
2018-11-29T06:04:33.000Z,16.43
2018-11-29T06:07:01.222Z,13.90
2018-11-29T06:09:29.415Z,13.83
2018-11-29T06:11:57.660Z,13.37
2018-11-29T06:14:25.855Z,13.67
2018-11-29T06:16:54.486Z,14.40
2018-11-29T06:19:22.702Z,12.70
2018-11-29T06:21:50.922Z,14.00
2018-11-29T06:24:19.127Z,12.83
2018-11-29T06:26:47.347Z,13.20
2018-11-29T06:29:15.561Z,12.33
2018-11-29T06:31:43.798Z,12.37
2018-11-29T06:34:11.997Z,12.57
2018-11-29T06:36:40.228Z,12.03
2018-11-29T06:39:09.061Z,12.17
2018-11-29T06:41:37.282Z,11.87
2018-11-29T06:44:05.546Z,11.47
2018-11-29T06:46:33.883Z,11.60
2018-11-29T06:49:02.174Z,12.00
2018-11-29T06:51:30.394Z,12.43
2018-11-29T06:53:59.124Z,12.37
2018-11-29T06:56:27.517Z,11.27
2018-11-29T06:58:55.721Z,12.17
2018-11-29T07:01:23.966Z,12.20
2018-11-29T07:03:52.161Z,12.57
2018-11-29T07:06:20.385Z,11.50
2018-11-29T07:08:48.585Z,11.67
2018-11-29T07:11:17.066Z,10.83
2018-11-29T07:13:45.274Z,11.87
2018-11-29T07:16:13.486Z,12.10
2018-11-29T07:18:41.700Z,12.50
2018-11-29T07:21:21.146Z,14.00
2018-11-29T07:23:49.354Z,12.20
2018-11-29T07:26:17.560Z,12.50
2018-11-29T07:28:45.767Z,12.00
2018-11-29T07:31:13.903Z,12.73
2018-11-29T07:33:42.042Z,12.83
2018-11-29T07:36:10.262Z,13.07
2018-11-29T07:38:38.528Z,12.30
2018-11-29T07:41:06.750Z,12.60
2018-11-29T07:43:34.964Z,12.63
2018-11-29T07:46:03.173Z,15.03
2018-11-29T07:48:31.393Z,14.40
2018-11-29T07:50:59.604Z,13.60
2018-11-29T07:53:27.810Z,14.73
2018-11-29T07:55:56.014Z,13.67
2018-11-29T07:58:24.247Z,15.87
2018-11-29T08:00:52.445Z,14.23
2018-11-29T08:03:20.646Z,14.20
2018-11-29T08:05:48.833Z,16.80
2018-11-29T08:08:17.051Z,15.67
2018-11-29T08:10:45.253Z,13.77
2018-11-29T08:13:13.486Z,13.73
2018-11-29T08:15:41.674Z,13.83
2018-11-29T08:18:09.898Z,13.90
2018-11-29T08:20:38.097Z,13.87
2018-11-29T08:23:06.306Z,14.17
2018-11-29T08:25:34.507Z,14.87
2018-11-29T08:28:02.733Z,15.27
2018-11-29T08:30:30.939Z,14.47
2018-11-29T08:32:59.153Z,13.70
2018-11-29T08:35:27.341Z,14.83
2018-11-29T08:37:55.553Z,13.63
2018-11-29T08:40:23.749Z,15.70
2018-11-29T08:42:51.971Z,14.33
2018-11-29T08:45:20.182Z,14.37
2018-11-29T08:47:48.394Z,15.37
2018-11-29T08:50:16.580Z,14.37
2018-11-29T08:52:45.655Z,14.90
2018-11-29T08:55:15.883Z,14.53
2018-11-29T08:57:44.163Z,14.40
2018-11-29T09:00:16.389Z,14.10
2018-11-29T09:02:44.783Z,14.20
2018-11-29T09:05:13.334Z,15.50
2018-11-29T09:07:41.931Z,14.27
2018-11-29T09:10:13.219Z,14.50
2018-11-29T09:12:41.397Z,13.17
2018-11-29T09:15:11.685Z,12.80
2018-11-29T09:17:40.009Z,13.40
2018-11-29T09:20:09.975Z,12.57
2018-11-29T09:22:38.173Z,13.20
2018-11-29T09:25:08.597Z,12.23
2018-11-29T09:27:37.508Z,12.63
2018-11-29T09:30:11.934Z,14.70
2018-11-29T09:32:40.341Z,13.10
2018-11-29T09:35:08.618Z,13.40
2018-11-29T09:37:36.841Z,13.07
2018-11-29T09:40:12.789Z,11.37
2018-11-29T09:42:41.024Z,13.20
2018-11-29T09:45:19.096Z,11.50
2018-11-29T09:47:48.546Z,12.90
2018-11-29T09:50:17.215Z,12.30
2018-11-29T09:52:45.427Z,11.93
2018-11-29T09:55:14.378Z,12.00
2018-11-29T09:57:42.971Z,12.17
2018-11-29T10:00:27.829Z,11.67
2018-11-29T10:03:24.142Z,10.60
2018-11-29T10:05:52.333Z,11.53
2018-11-29T10:08:26.019Z,9.93
2018-11-29T10:10:48.854Z,11.40
2018-11-29T10:13:17.079Z,11.07
2018-11-29T10:15:45.305Z,11.10
2018-11-29T10:18:13.529Z,9.30
2018-11-29T10:20:41.905Z,10.13
2018-11-29T10:23:10.162Z,11.67
2018-11-29T10:25:40.002Z,10.30
2018-11-29T10:28:11.751Z,11.33
2018-11-29T10:31:01.254Z,10.87
2018-11-29T10:33:29.668Z,9.93
2018-11-29T10:35:59.238Z,10.00
2018-11-29T10:38:26.494Z,9.53
2018-11-29T10:40:55.005Z,9.90
2018-11-29T10:43:23.379Z,9.73
2018-11-29T10:45:51.726Z,9.77
2018-11-29T10:48:21.291Z,9.73
2018-11-29T10:50:49.701Z,8.83
2018-11-29T10:53:18.465Z,9.50
2018-11-29T10:55:46.674Z,9.93
2018-11-29T10:58:15.066Z,8.63
2018-11-29T11:00:48.658Z,8.37
2018-11-29T11:03:17.882Z,8.03
2018-11-29T11:05:47.120Z,8.13
2018-11-29T11:08:16.065Z,8.40
2018-11-29T11:10:43.524Z,7.93
2018-11-29T11:13:11.722Z,8.17
2018-11-29T11:15:39.922Z,8.83
2018-11-29T11:18:09.321Z,8.50
2018-11-29T11:20:37.514Z,8.33
2018-11-29T11:23:05.762Z,8.73
2018-11-29T11:25:34.104Z,8.00
2018-11-29T11:28:02.469Z,8.77
2018-11-29T11:30:30.685Z,8.50
2018-11-29T11:32:58.997Z,7.43
2018-11-29T11:35:30.414Z,8.67
2018-11-29T11:37:59.085Z,7.97
2018-11-29T11:40:27.288Z,8.37
2018-11-29T11:42:55.515Z,8.77
2018-11-29T11:45:23.947Z,8.33
2018-11-29T11:47:52.150Z,8.10
2018-11-29T11:50:22.273Z,7.57
2018-11-29T11:52:51.026Z,7.07
2018-11-29T11:55:19.493Z,7.50
2018-11-29T11:57:48.230Z,7.63
2018-11-29T12:00:18.662Z,7.43
2018-11-29T12:02:47.991Z,7.57
2018-11-29T12:05:16.406Z,7.33
2018-11-29T12:07:44.821Z,8.07
2018-11-29T12:10:14.993Z,7.30
2018-11-29T12:12:43.182Z,8.13
2018-11-29T12:15:12.575Z,6.30
2018-11-29T12:17:41.442Z,6.83
2018-11-29T12:20:15.554Z,7.07
2018-11-29T12:22:43.945Z,6.23
2018-11-29T12:25:13.039Z,5.97
2018-11-29T12:27:41.342Z,6.37
2018-11-29T12:30:11.814Z,5.83
2018-11-29T12:32:40.064Z,6.67
2018-11-29T12:35:08.452Z,6.23
2018-11-29T12:37:36.828Z,6.40
2018-11-29T12:40:06.814Z,6.33
2018-11-29T12:42:35.018Z,6.97
2018-11-29T12:45:03.275Z,6.53
2018-11-29T12:47:31.534Z,6.33
2018-11-29T12:49:59.894Z,7.50
2018-11-29T12:52:28.087Z,10.13
2018-11-29T12:54:56.297Z,7.57
2018-11-29T12:57:24.673Z,6.97
2018-11-29T12:59:53.136Z,7.10
2018-11-29T13:02:21.338Z,6.63
2018-11-29T13:04:49.595Z,6.50
2018-11-29T13:07:17.765Z,6.53
2018-11-29T13:09:46.185Z,6.77
2018-11-29T13:12:14.402Z,7.63
2018-11-29T13:14:42.666Z,6.43
2018-11-29T13:17:10.947Z,6.40
2018-11-29T13:19:39.290Z,5.83
2018-11-29T13:22:07.470Z,5.57
2018-11-29T13:24:35.678Z,5.80
2018-11-29T13:27:03.873Z,5.77
2018-11-29T13:29:32.074Z,5.40
2018-11-29T13:32:00.370Z,5.60
2018-11-29T13:34:28.574Z,6.50
2018-11-29T13:36:56.771Z,6.23
2018-11-29T13:39:25.108Z,5.40
2018-11-29T13:41:53.349Z,5.63
2018-11-29T13:44:21.666Z,5.97
2018-11-29T13:46:49.910Z,5.80
2018-11-29T13:49:18.149Z,4.70
2018-11-29T13:51:46.355Z,5.23
2018-11-29T13:54:14.586Z,5.27
2018-11-29T13:56:42.779Z,5.30
2018-11-29T13:59:11.006Z,4.90
2018-11-29T14:01:39.197Z,6.27
2018-11-29T14:04:07.615Z,4.80
2018-11-29T14:06:35.794Z,4.67
2018-11-29T14:09:05.366Z,4.67
2018-11-29T14:11:33.660Z,4.63
2018-11-29T14:14:01.841Z,4.47
2018-11-29T14:16:30.114Z,4.10
2018-11-29T14:18:58.349Z,4.53
2018-11-29T14:21:26.550Z,3.97
2018-11-29T14:23:54.746Z,3.73
2018-11-29T14:26:22.985Z,4.40
2018-11-29T14:28:51.310Z,3.67
2018-11-29T14:31:19.514Z,4.40
2018-11-29T14:33:47.757Z,4.23
2018-11-29T14:36:15.938Z,4.03
2018-11-29T14:38:44.162Z,3.73
2018-11-29T14:41:12.362Z,4.30
2018-11-29T14:43:40.585Z,3.77
2018-11-29T14:46:08.815Z,4.00
2018-11-29T14:48:37.007Z,4.07
2018-11-29T14:51:05.483Z,4.57
2018-11-29T14:53:33.867Z,4.17
2018-11-29T14:56:02.184Z,3.63
2018-11-29T14:58:30.407Z,5.23
2018-11-29T15:00:58.730Z,3.90
2018-11-29T15:03:27.147Z,3.90
2018-11-29T15:05:55.388Z,3.93
2018-11-29T15:08:23.646Z,4.53
2018-11-29T15:10:51.897Z,4.90
2018-11-29T15:13:20.138Z,4.07
2018-11-29T15:15:48.359Z,5.80
2018-11-29T15:18:16.645Z,5.43
2018-11-29T15:20:47.041Z,5.67
2018-11-29T15:23:16.600Z,10.10
2018-11-29T15:25:44.832Z,4.60
2018-11-29T15:28:13.042Z,4.53
2018-11-29T15:30:41.336Z,4.60
2018-11-29T15:33:09.567Z,4.47
2018-11-29T15:35:37.777Z,4.90
2018-11-29T15:38:06.354Z,3.97
2018-11-29T15:40:35.126Z,3.97
2018-11-29T15:43:04.660Z,3.70
2018-11-29T15:45:32.006Z,4.13
2018-11-29T15:48:00.562Z,3.90
2018-11-29T15:50:28.783Z,3.90
2018-11-29T15:52:56.981Z,4.53
2018-11-29T15:55:25.182Z,3.60
2018-11-29T15:57:53.861Z,4.30
2018-11-29T16:00:23.122Z,3.97
2018-11-29T16:02:51.824Z,5.33
2018-11-29T16:05:19.961Z,5.13
2018-11-29T16:07:48.201Z,5.70
2018-11-29T16:10:17.608Z,6.13
2018-11-29T16:12:45.798Z,6.00
2018-11-29T16:15:14.878Z,5.97
2018-11-29T16:17:43.447Z,7.37
2018-11-29T16:20:19.126Z,6.07
2018-11-29T16:22:47.332Z,6.73
2018-11-29T16:25:15.582Z,6.60
2018-11-29T16:27:43.773Z,6.67
2018-11-29T16:30:50.320Z,6.27
2018-11-29T16:33:23.840Z,6.03
2018-11-29T16:35:52.021Z,7.90
2018-11-29T16:38:20.189Z,7.30
2018-11-29T16:40:49.209Z,8.10
2018-11-29T16:43:17.364Z,9.13
2018-11-29T16:45:45.680Z,9.30
2018-11-29T16:48:13.869Z,6.93
2018-11-29T16:50:42.049Z,6.70
2018-11-29T16:53:10.233Z,7.67
2018-11-29T16:55:38.496Z,7.87
2018-11-29T16:58:09.294Z,7.63
2018-11-29T17:00:37.454Z,7.53
2018-11-29T17:03:05.660Z,7.30
2018-11-29T17:05:33.822Z,7.67
2018-11-29T17:08:02.127Z,7.70
2018-11-29T17:10:30.340Z,7.53
2018-11-29T17:13:00.211Z,7.60
2018-11-29T17:15:28.401Z,7.23
2018-11-29T17:17:56.597Z,7.10
2018-11-29T17:20:24.816Z,7.33
2018-11-29T17:22:53.058Z,7.20
2018-11-29T17:25:21.269Z,7.67
2018-11-29T17:27:49.494Z,7.47
2018-11-29T17:30:22.546Z,7.47
2018-11-29T17:32:52.665Z,7.50
2018-11-29T17:35:20.854Z,7.57
2018-11-29T17:37:49.272Z,7.60
2018-11-29T17:40:18.512Z,8.60
2018-11-29T17:42:46.760Z,7.50
2018-11-29T17:45:31.720Z,8.00
2018-11-29T17:48:01.621Z,8.03
2018-11-29T17:50:37.970Z,8.27
2018-11-29T17:53:07.034Z,8.23
2018-11-29T17:55:35.497Z,7.80
2018-11-29T17:58:09.197Z,9.03
2018-11-29T18:00:37.493Z,8.63
2018-11-29T18:03:06.949Z,9.73
2018-11-29T18:05:35.183Z,10.03
2018-11-29T18:08:03.430Z,9.10
2018-11-29T18:10:34.450Z,8.33
2018-11-29T18:13:09.810Z,9.70
2018-11-29T18:15:38.099Z,10.13
2018-11-29T18:18:06.306Z,10.23
2018-11-29T18:20:34.848Z,10.10
2018-11-29T18:23:03.115Z,9.90
2018-11-29T18:25:31.329Z,10.40
2018-11-29T18:27:59.555Z,10.53
2018-11-29T18:30:27.777Z,9.60
2018-11-29T18:32:55.974Z,10.23
2018-11-29T18:35:24.197Z,10.70
2018-11-29T18:37:52.483Z,11.40
2018-11-29T18:40:21.655Z,11.07
2018-11-29T18:42:54.276Z,11.83
2018-11-29T18:45:22.533Z,13.97
2018-11-29T18:47:51.759Z,13.30
2018-11-29T18:50:21.017Z,15.00
2018-11-29T18:52:49.303Z,16.27
2018-11-29T18:55:17.594Z,16.90
2018-11-29T18:57:45.912Z,16.87
2018-11-29T19:00:20.502Z,17.40
2018-11-29T19:02:48.665Z,18.77
2018-11-29T19:05:16.798Z,17.83
2018-11-29T19:07:44.986Z,19.67
2018-11-29T19:10:14.974Z,21.17
2018-11-29T19:12:52.992Z,21.53
2018-11-29T19:15:21.145Z,20.50
2018-11-29T19:17:49.296Z,21.20
2018-11-29T19:20:17.431Z,19.37
2018-11-29T19:22:45.584Z,19.93
2018-11-29T19:25:15.751Z,19.47
2018-11-29T19:27:43.905Z,19.20
2018-11-29T19:30:18.154Z,19.30
2018-11-29T19:32:47.935Z,17.60
2018-11-29T19:35:16.058Z,15.47
2018-11-29T19:37:44.211Z,15.87
2018-11-29T19:40:13.524Z,15.60
2018-11-29T19:42:43.241Z,14.77
2018-11-29T19:45:13.061Z,14.90
2018-11-29T19:47:41.261Z,12.63
2018-11-29T19:50:18.562Z,12.20
2018-11-29T19:52:53.127Z,12.03
2018-11-29T19:55:23.688Z,11.37
2018-11-29T19:57:51.964Z,12.77
2018-11-29T20:00:20.334Z,10.90
2018-11-29T20:02:49.460Z,11.53
2018-11-29T20:05:17.762Z,10.37
2018-11-29T20:07:46.147Z,10.43
2018-11-29T20:10:16.154Z,10.97
2018-11-29T20:12:45.003Z,11.00
2018-11-29T20:15:16.779Z,10.77
2018-11-29T20:17:44.918Z,10.63
2018-11-29T20:20:13.175Z,11.27
2018-11-29T20:22:41.651Z,11.63
2018-11-29T20:25:13.786Z,10.03
2018-11-29T20:27:42.199Z,10.17
2018-11-29T20:30:19.530Z,10.40
2018-11-29T20:32:48.879Z,10.67
2018-11-29T20:35:17.678Z,11.07
2018-11-29T20:37:45.956Z,10.57
2018-11-29T20:40:46.025Z,9.87
2018-11-29T20:43:14.771Z,10.40
2018-11-29T20:45:51.493Z,11.43
2018-11-29T20:48:22.316Z,9.87
2018-11-29T20:50:51.587Z,11.13
2018-11-29T20:53:24.446Z,10.53
2018-11-29T20:55:52.722Z,10.20
2018-11-29T20:58:20.959Z,10.43
2018-11-29T21:00:49.298Z,11.03
2018-11-29T21:03:17.543Z,9.97
2018-11-29T21:05:45.879Z,11.07
2018-11-29T21:08:14.206Z,11.93
2018-11-29T21:10:42.623Z,10.87
2018-11-29T21:13:10.838Z,11.00
2018-11-29T21:15:40.358Z,10.93
2018-11-29T21:18:09.977Z,10.47
2018-11-29T21:20:38.497Z,10.93
2018-11-29T21:23:08.438Z,11.03
2018-11-29T21:25:36.850Z,11.03
2018-11-29T21:28:06.397Z,11.20
2018-11-29T21:30:34.882Z,9.97
2018-11-29T21:33:03.338Z,10.80
2018-11-29T21:35:31.614Z,11.30
2018-11-29T21:38:00.158Z,12.10
2018-11-29T21:40:31.797Z,11.97
2018-11-29T21:42:59.997Z,12.37
2018-11-29T21:45:28.375Z,12.03
2018-11-29T21:47:56.572Z,11.70
2018-11-29T21:50:24.797Z,12.60
2018-11-29T21:52:53.038Z,12.43
2018-11-29T21:55:21.306Z,12.73
2018-11-29T21:57:49.685Z,13.43
2018-11-29T22:00:21.109Z,13.10
2018-11-29T22:02:54.748Z,13.00
2018-11-29T22:05:22.982Z,12.87
2018-11-29T22:07:51.305Z,12.63
2018-11-29T22:10:19.607Z,13.70
2018-11-29T22:12:47.830Z,12.53
2018-11-29T22:15:16.058Z,13.80
2018-11-29T22:18:01.525Z,12.40
2018-11-29T22:20:24.858Z,13.67
2018-11-29T22:22:53.066Z,14.10
2018-11-29T22:25:21.297Z,14.07
2018-11-29T22:27:49.510Z,13.07
2018-11-29T22:30:17.916Z,14.07
2018-11-29T22:32:46.410Z,13.67
2018-11-29T22:35:15.420Z,12.93
2018-11-29T22:37:43.885Z,13.13
2018-11-29T22:40:12.226Z,13.43
2018-11-29T22:42:40.562Z,13.83
2018-11-29T22:45:09.040Z,13.00
2018-11-29T22:47:37.500Z,16.20
2018-11-29T22:50:06.826Z,19.77
2018-11-29T22:52:35.122Z,13.60
2018-11-29T22:55:03.454Z,13.33
2018-11-29T22:57:31.714Z,13.10
2018-11-29T22:59:59.906Z,12.93
2018-11-29T23:02:28.247Z,12.73
2018-11-29T23:04:56.648Z,12.80
2018-11-29T23:07:24.874Z,11.53
2018-11-29T23:09:53.106Z,12.37
2018-11-29T23:12:24.410Z,12.33
2018-11-29T23:14:53.398Z,12.47
2018-11-29T23:17:21.951Z,11.67
2018-11-29T23:19:50.365Z,11.03
2018-11-29T23:22:18.603Z,11.97
2018-11-29T23:24:46.828Z,11.30
2018-11-29T23:27:15.076Z,12.17
2018-11-29T23:29:43.440Z,11.80
2018-11-29T23:32:11.786Z,12.17
2018-11-29T23:34:40.198Z,11.57
2018-11-29T23:37:08.483Z,12.27
2018-11-29T23:39:36.816Z,12.20
2018-11-29T23:42:06.066Z,12.10
2018-11-29T23:44:34.503Z,11.47
2018-11-29T23:47:02.773Z,12.20
2018-11-29T23:49:31.197Z,11.37
2018-11-29T23:51:59.657Z,11.47
2018-11-29T23:54:28.042Z,10.90
2018-11-29T23:56:56.499Z,11.53
2018-11-29T23:59:24.900Z,10.93
